createdAt,value
2022-08-21T00:00:46.746Z,93.72
2022-08-21T00:01:41.847Z,94.25
2022-08-21T00:02:37.014Z,94.89
2022-08-21T00:03:31.987Z,95.32
2022-08-21T00:04:29.508Z,95.14
2022-08-21T00:05:22.126Z,95.90
2022-08-21T00:06:17.109Z,95.08
2022-08-21T00:07:12.187Z,95.65
2022-08-21T00:08:07.178Z,94.39
2022-08-21T00:09:06.240Z,95.54
2022-08-21T00:09:57.284Z,94.25
2022-08-21T00:10:52.252Z,94.67
2022-08-21T00:11:47.354Z,94.57
2022-08-21T00:12:42.419Z,95.21
2022-08-21T00:13:37.402Z,93.93
2022-08-21T00:14:32.532Z,94.14
2022-08-21T00:15:27.563Z,94.89
2022-08-21T00:16:22.652Z,95.54
2022-08-21T00:17:17.741Z,93.82
2022-08-21T00:18:12.871Z,94.57
2022-08-21T00:19:07.940Z,95.11
2022-08-21T00:20:03.020Z,95.65
2022-08-21T00:21:03.141Z,94.65
2022-08-21T00:21:58.220Z,94.49
2022-08-21T00:22:53.296Z,96.07
2022-08-21T00:23:48.397Z,97.02
2022-08-21T00:24:43.648Z,97.19
2022-08-21T00:25:39.017Z,96.57
2022-08-21T00:26:33.980Z,96.24
2022-08-21T00:27:29.180Z,96.57
2022-08-21T00:28:24.441Z,95.30
2022-08-21T00:29:20.378Z,94.28
2022-08-21T00:30:22.870Z,95.43
2022-08-21T00:31:12.629Z,95.21
2022-08-21T00:32:06.756Z,95.54
2022-08-21T00:33:02.150Z,95.11
2022-08-21T00:34:01.048Z,95.00
2022-08-21T00:34:53.827Z,94.89
2022-08-21T00:35:48.910Z,94.78
2022-08-21T00:36:45.384Z,94.89
2022-08-21T00:37:40.690Z,95.76
2022-08-21T00:38:36.467Z,95.87
2022-08-21T00:39:31.671Z,94.76
2022-08-21T00:40:26.812Z,95.58
2022-08-21T00:41:37.029Z,96.96
2022-08-21T00:42:18.810Z,97.93
2022-08-21T00:43:13.521Z,98.51
2022-08-21T00:44:08.725Z,98.63
2022-08-21T00:45:03.992Z,99.09
2022-08-21T00:45:59.784Z,99.27
2022-08-21T00:46:54.946Z,100.17
2022-08-21T00:47:50.086Z,100.29
2022-08-21T00:48:46.492Z,100.77
2022-08-21T00:49:41.775Z,101.01
2022-08-21T00:50:37.615Z,100.83
2022-08-21T00:51:32.769Z,100.35
2022-08-21T00:52:29.429Z,99.99
2022-08-21T00:53:23.615Z,99.81
2022-08-21T00:54:19.598Z,99.51
2022-08-21T00:55:14.729Z,100.29
2022-08-21T00:56:10.838Z,100.35
2022-08-21T00:57:06.007Z,100.53
2022-08-21T00:58:01.223Z,99.69
2022-08-21T00:58:57.197Z,99.45
2022-08-21T00:59:52.329Z,99.51
2022-08-21T01:00:47.769Z,99.51
2022-08-21T01:01:43.604Z,99.69
2022-08-21T01:02:38.738Z,98.80
2022-08-21T01:03:33.973Z,99.45
2022-08-21T01:04:30.253Z,97.47
2022-08-21T01:05:25.490Z,96.57
2022-08-21T01:06:21.312Z,96.18
2022-08-21T01:07:16.538Z,96.02
2022-08-21T01:08:11.770Z,95.25
2022-08-21T01:09:07.446Z,94.39
2022-08-21T01:10:02.696Z,95.21
2022-08-21T01:10:58.485Z,95.21
2022-08-21T01:11:53.722Z,93.82
2022-08-21T01:12:49.093Z,93.72
2022-08-21T01:13:44.767Z,93.09
2022-08-21T01:14:40.017Z,92.68
2022-08-21T01:15:35.094Z,92.37
2022-08-21T01:16:31.543Z,91.16
2022-08-21T01:17:26.834Z,90.37
2022-08-21T01:18:22.633Z,90.86
2022-08-21T01:19:17.842Z,91.86
2022-08-21T01:20:12.989Z,92.78
2022-08-21T01:21:08.773Z,93.30
2022-08-21T01:22:03.936Z,94.35
2022-08-21T01:22:59.891Z,94.46
2022-08-21T01:23:54.896Z,94.78
2022-08-21T01:24:50.064Z,95.21
2022-08-21T01:25:46.002Z,95.00
2022-08-21T01:26:41.141Z,94.89
2022-08-21T01:27:36.437Z,94.25
2022-08-21T01:28:32.644Z,93.61
2022-08-21T01:29:27.840Z,92.99
2022-08-21T01:30:23.041Z,93.40
2022-08-21T01:31:18.348Z,93.82
2022-08-21T01:32:15.204Z,94.25
2022-08-21T01:33:09.391Z,95.11
2022-08-21T01:34:04.590Z,94.14
2022-08-21T01:35:00.955Z,93.82
2022-08-21T01:35:56.481Z,93.30
2022-08-21T01:36:52.012Z,93.72
2022-08-21T01:37:47.113Z,92.78
2022-08-21T01:38:42.234Z,93.09
2022-08-21T01:39:38.116Z,92.37
2022-08-21T01:40:33.248Z,93.30
2022-08-21T01:41:29.183Z,92.78
2022-08-21T01:42:24.276Z,92.99
2022-08-21T01:43:23.882Z,92.26
2022-08-21T01:44:16.526Z,92.16
2022-08-21T01:45:10.709Z,91.36
2022-08-21T01:46:06.058Z,90.96
2022-08-21T01:47:01.166Z,90.96
2022-08-21T01:47:56.244Z,90.56
2022-08-21T01:48:51.234Z,88.83
2022-08-21T01:49:46.357Z,87.61
2022-08-21T01:50:41.436Z,86.53
2022-08-21T01:51:36.436Z,87.34
2022-08-21T01:52:31.517Z,88.08
2022-08-21T01:53:28.682Z,88.45
2022-08-21T01:54:24.140Z,87.61
2022-08-21T01:55:18.175Z,87.52
2022-08-21T01:56:13.273Z,87.71
2022-08-21T01:57:08.377Z,87.16
2022-08-21T01:58:03.483Z,87.89
2022-08-21T01:58:58.561Z,88.36
2022-08-21T01:59:53.701Z,87.71
2022-08-21T02:00:48.860Z,87.61
2022-08-21T02:01:43.835Z,88.45
2022-08-21T02:02:38.910Z,88.64
2022-08-21T02:03:35.674Z,87.99
2022-08-21T02:04:28.992Z,87.71
2022-08-21T02:05:24.109Z,87.43
2022-08-21T02:06:19.259Z,87.52
2022-08-21T02:07:14.111Z,87.89
2022-08-21T02:08:09.179Z,87.52
2022-08-21T02:09:04.127Z,87.52
2022-08-21T02:09:59.160Z,87.43
2022-08-21T02:10:54.413Z,87.25
2022-08-21T02:11:49.606Z,86.61
2022-08-21T02:12:44.685Z,85.90
2022-08-21T02:13:39.796Z,85.64
2022-08-21T02:14:34.936Z,85.46
2022-08-21T02:15:30.037Z,85.64
2022-08-21T02:16:25.110Z,85.46
2022-08-21T02:17:20.192Z,85.29
2022-08-21T02:18:15.173Z,85.46
2022-08-21T02:19:10.230Z,85.55
2022-08-21T02:20:05.337Z,85.55
2022-08-21T02:21:02.604Z,86.08
2022-08-21T02:21:57.801Z,85.29
2022-08-21T02:22:53.018Z,85.37
2022-08-21T02:23:48.122Z,85.72
2022-08-21T02:24:54.692Z,86.08
2022-08-21T02:25:39.621Z,87.07
2022-08-21T02:26:33.685Z,87.61
2022-08-21T02:27:28.772Z,87.34
2022-08-21T02:28:23.903Z,88.64
2022-08-21T02:29:18.889Z,89.02
2022-08-21T02:30:13.895Z,89.78
2022-08-21T02:31:09.003Z,89.78
2022-08-21T02:32:09.683Z,89.40
2022-08-21T02:33:04.639Z,88.54
2022-08-21T02:33:59.880Z,88.64
2022-08-21T02:34:55.705Z,88.83
2022-08-21T02:35:50.942Z,87.71
2022-08-21T02:36:46.297Z,88.54
2022-08-21T02:37:43.417Z,88.73
2022-08-21T02:38:37.579Z,89.02
2022-08-21T02:39:33.395Z,88.17
2022-08-21T02:40:28.599Z,88.36
2022-08-21T02:41:23.908Z,88.92
2022-08-21T02:42:19.480Z,89.40
2022-08-21T02:43:14.727Z,89.98
2022-08-21T02:44:10.538Z,90.56
2022-08-21T02:45:05.747Z,91.16
2022-08-21T02:46:01.177Z,92.88
2022-08-21T02:46:56.870Z,94.03
2022-08-21T02:47:52.126Z,94.57
2022-08-21T02:48:47.216Z,93.75
2022-08-21T02:49:43.677Z,96.02
2022-08-21T02:50:38.948Z,97.19
2022-08-21T02:51:34.763Z,97.08
2022-08-21T02:52:29.865Z,97.36
2022-08-21T02:53:24.992Z,96.35
2022-08-21T02:54:20.803Z,97.76
2022-08-21T02:55:15.948Z,97.59
2022-08-21T02:56:11.767Z,97.76
2022-08-21T02:57:06.855Z,96.85
2022-08-21T02:58:02.128Z,94.60
2022-08-21T02:58:57.787Z,95.76
2022-08-21T02:59:52.922Z,94.46
2022-08-21T03:00:48.000Z,95.00
2022-08-21T03:01:44.434Z,95.76
2022-08-21T03:02:39.563Z,95.32
2022-08-21T03:03:35.353Z,95.32
2022-08-21T03:04:30.486Z,95.76
2022-08-21T03:05:25.600Z,94.55
2022-08-21T03:06:21.435Z,95.21
2022-08-21T03:07:16.549Z,95.54
2022-08-21T03:08:12.477Z,94.44
2022-08-21T03:09:07.590Z,95.58
2022-08-21T03:10:03.152Z,94.55
2022-08-21T03:10:58.841Z,93.70
2022-08-21T03:11:54.066Z,95.65
2022-08-21T03:12:49.423Z,95.63
2022-08-21T03:13:45.523Z,94.12
2022-08-21T03:14:40.759Z,95.30
2022-08-21T03:15:36.595Z,95.76
2022-08-21T03:16:34.850Z,95.54
2022-08-21T03:17:29.827Z,94.28
2022-08-21T03:18:21.955Z,94.25
2022-08-21T03:19:17.069Z,93.93
2022-08-21T03:20:17.054Z,93.30
2022-08-21T03:21:12.144Z,93.82
2022-08-21T03:22:07.536Z,92.37
2022-08-21T03:23:03.355Z,91.46
2022-08-21T03:23:58.583Z,92.16
2022-08-21T03:24:53.924Z,91.66
2022-08-21T03:25:50.053Z,92.16
2022-08-21T03:26:45.153Z,91.86
2022-08-21T03:27:40.503Z,92.88
2022-08-21T03:28:35.501Z,93.40
2022-08-21T03:29:32.097Z,92.88
2022-08-21T03:30:27.512Z,92.37
2022-08-21T03:31:22.479Z,94.03
2022-08-21T03:32:18.951Z,92.47
2022-08-21T03:33:15.413Z,91.86
2022-08-21T03:34:10.002Z,92.37
2022-08-21T03:35:05.086Z,92.26
2022-08-21T03:36:00.209Z,92.57
2022-08-21T03:36:56.008Z,93.30
2022-08-21T03:37:51.155Z,93.51
2022-08-21T03:38:46.941Z,93.93
2022-08-21T03:39:42.184Z,94.67
2022-08-21T03:40:37.434Z,95.21
2022-08-21T03:41:33.207Z,95.43
2022-08-21T03:42:28.367Z,94.65
2022-08-21T03:43:23.447Z,95.65
2022-08-21T03:44:19.815Z,95.30
2022-08-21T03:45:14.887Z,94.76
2022-08-21T03:46:10.126Z,95.54
2022-08-21T03:47:05.252Z,95.03
2022-08-21T03:48:00.475Z,94.67
2022-08-21T03:48:56.298Z,94.78
2022-08-21T03:49:51.534Z,95.11
2022-08-21T03:50:46.734Z,95.32
2022-08-21T03:51:42.554Z,95.00
2022-08-21T03:52:37.764Z,95.43
2022-08-21T03:53:33.154Z,95.43
2022-08-21T03:54:28.845Z,94.01
2022-08-21T03:55:23.366Z,94.33
2022-08-21T03:56:18.713Z,95.76
2022-08-21T03:57:14.808Z,95.76
2022-08-21T03:58:11.275Z,94.28
2022-08-21T03:59:06.612Z,95.76
2022-08-21T04:00:04.673Z,93.51
2022-08-21T04:00:59.901Z,92.99
2022-08-21T04:01:55.329Z,92.57
2022-08-21T04:02:50.371Z,92.99
2022-08-21T04:03:45.402Z,91.06
2022-08-21T04:04:40.430Z,90.27
2022-08-21T04:05:35.456Z,90.46
2022-08-21T04:06:37.965Z,91.76
2022-08-21T04:07:31.540Z,90.37
2022-08-21T04:08:26.695Z,90.76
2022-08-21T04:09:21.818Z,91.46
2022-08-21T04:10:17.115Z,92.06
2022-08-21T04:11:12.252Z,92.47
2022-08-21T04:12:07.509Z,93.51
2022-08-21T04:13:02.942Z,94.25
2022-08-21T04:13:57.957Z,94.07
2022-08-21T04:14:53.206Z,95.19
2022-08-21T04:15:48.387Z,95.52
2022-08-21T04:16:43.674Z,95.41
2022-08-21T04:17:38.959Z,95.68
2022-08-21T04:18:34.164Z,96.18
2022-08-21T04:19:29.345Z,96.40
2022-08-21T04:20:24.533Z,96.46
2022-08-21T04:21:19.729Z,96.85
2022-08-21T04:22:15.059Z,96.46
2022-08-21T04:23:10.321Z,95.68
2022-08-21T04:24:05.504Z,94.71
2022-08-21T04:25:00.823Z,95.21
2022-08-21T04:25:56.064Z,94.67
2022-08-21T04:26:51.453Z,93.82
2022-08-21T04:27:46.683Z,93.61
2022-08-21T04:28:41.964Z,93.61
2022-08-21T04:29:40.048Z,93.82
2022-08-21T04:30:32.534Z,93.72
2022-08-21T04:31:27.765Z,93.30
2022-08-21T04:32:23.010Z,92.68
2022-08-21T04:33:18.303Z,92.26
2022-08-21T04:34:13.540Z,92.06
2022-08-21T04:35:08.921Z,91.96
2022-08-21T04:36:04.076Z,91.96
2022-08-21T04:36:59.311Z,91.66
2022-08-21T04:37:54.605Z,92.47
2022-08-21T04:38:49.848Z,91.96
2022-08-21T04:39:45.247Z,91.76
2022-08-21T04:40:40.379Z,91.76
2022-08-21T04:41:35.615Z,91.06
2022-08-21T04:42:30.911Z,91.16
2022-08-21T04:43:26.179Z,90.96
2022-08-21T04:44:21.427Z,91.06
2022-08-21T04:45:16.683Z,91.26
2022-08-21T04:46:13.783Z,91.16
2022-08-21T04:47:07.225Z,90.76
2022-08-21T04:48:02.483Z,90.86
2022-08-21T04:48:57.727Z,90.96
2022-08-21T04:49:52.974Z,91.16
2022-08-21T04:50:48.233Z,91.26
2022-08-21T04:51:43.497Z,92.26
2022-08-21T04:52:38.517Z,91.96
2022-08-21T04:53:33.527Z,91.96
2022-08-21T04:54:28.822Z,92.57
2022-08-21T04:55:24.012Z,92.68
2022-08-21T04:56:19.041Z,92.78
2022-08-21T04:57:19.641Z,91.66
2022-08-21T04:58:14.837Z,91.26
2022-08-21T04:59:10.260Z,90.96
2022-08-21T05:00:05.583Z,91.06
2022-08-21T05:01:00.881Z,91.06
2022-08-21T05:01:56.272Z,91.06
2022-08-21T05:02:51.565Z,90.76
2022-08-21T05:03:46.842Z,89.88
2022-08-21T05:04:42.142Z,89.21
2022-08-21T05:05:37.463Z,89.11
2022-08-21T05:06:32.777Z,88.26
2022-08-21T05:07:42.400Z,87.61
2022-08-21T05:08:24.422Z,87.43
2022-08-21T05:09:18.772Z,80.13
2022-08-21T05:10:14.109Z,81.94
2022-08-21T05:11:09.472Z,83.91
2022-08-21T05:12:04.888Z,83.66
2022-08-21T05:13:00.132Z,84.42
2022-08-21T05:13:57.230Z,83.91
2022-08-21T05:14:50.747Z,84.51
2022-08-21T05:15:46.753Z,85.29
2022-08-21T05:16:42.041Z,85.29
2022-08-21T05:17:37.357Z,86.35
2022-08-21T05:18:32.657Z,85.99
2022-08-21T05:19:27.971Z,86.35
2022-08-21T05:20:23.289Z,86.35
2022-08-21T05:21:18.614Z,87.16
2022-08-21T05:22:13.935Z,87.71
2022-08-21T05:23:09.213Z,88.83
2022-08-21T05:24:04.636Z,88.83
2022-08-21T05:24:59.804Z,89.21
2022-08-21T05:25:55.178Z,88.92
2022-08-21T05:26:50.490Z,89.21
2022-08-21T05:27:45.831Z,89.98
2022-08-21T05:28:41.331Z,89.59
2022-08-21T05:29:36.587Z,89.59
2022-08-21T05:30:31.962Z,90.27
2022-08-21T05:31:27.324Z,90.37
2022-08-21T05:32:22.690Z,90.46
2022-08-21T05:33:18.004Z,91.36
2022-08-21T05:34:13.364Z,90.96
2022-08-21T05:35:08.741Z,89.88
2022-08-21T05:36:04.243Z,91.06
2022-08-21T05:37:02.125Z,90.96
2022-08-21T05:37:55.128Z,90.56
2022-08-21T05:38:50.208Z,89.88
2022-08-21T05:40:05.230Z,90.07
2022-08-21T05:40:41.490Z,87.52
2022-08-21T05:41:37.152Z,87.89
2022-08-21T05:42:32.228Z,88.36
2022-08-21T05:43:27.325Z,86.98
2022-08-21T05:44:22.410Z,87.07
2022-08-21T05:45:17.397Z,86.43
2022-08-21T05:46:13.388Z,85.37
2022-08-21T05:47:07.517Z,85.72
2022-08-21T05:48:02.882Z,85.11
2022-08-21T05:48:58.697Z,85.90
2022-08-21T05:49:54.035Z,85.64
2022-08-21T05:50:49.654Z,85.81
2022-08-21T05:51:44.755Z,85.64
2022-08-21T05:52:40.094Z,86.43
2022-08-21T05:53:35.484Z,86.61
2022-08-21T05:54:30.866Z,85.81
2022-08-21T05:55:26.215Z,85.29
2022-08-21T05:56:21.306Z,83.58
2022-08-21T05:57:16.382Z,83.16
2022-08-21T05:58:11.498Z,83.66
2022-08-21T05:59:08.764Z,81.86
2022-08-21T06:00:01.670Z,80.75
2022-08-21T06:00:57.040Z,80.75
2022-08-21T06:01:52.071Z,79.97
2022-08-21T06:02:47.171Z,79.67
2022-08-21T06:03:42.301Z,79.67
2022-08-21T06:04:37.373Z,80.05
2022-08-21T06:05:37.322Z,79.82
2022-08-21T06:06:28.584Z,79.90
2022-08-21T06:07:22.616Z,79.52
2022-08-21T06:08:17.701Z,79.21
2022-08-21T06:09:12.769Z,79.44
2022-08-21T06:10:07.852Z,78.32
2022-08-21T06:11:02.964Z,78.62
2022-08-21T06:11:58.046Z,78.54
2022-08-21T06:12:53.157Z,77.81
2022-08-21T06:13:48.145Z,77.02
2022-08-21T06:14:43.500Z,75.15
2022-08-21T06:15:38.890Z,74.88
2022-08-21T06:16:34.254Z,74.48
2022-08-21T06:17:29.614Z,73.30
2022-08-21T06:18:25.003Z,73.11
2022-08-21T06:19:20.346Z,72.85
2022-08-21T06:20:15.827Z,72.47
2022-08-21T06:21:11.076Z,72.60
2022-08-21T06:22:06.434Z,72.47
2022-08-21T06:23:01.823Z,72.60
2022-08-21T06:23:57.184Z,72.72
2022-08-21T06:24:52.517Z,72.85
2022-08-21T06:25:47.909Z,72.79
2022-08-21T06:26:43.284Z,72.98
2022-08-21T06:27:38.363Z,71.72
2022-08-21T06:28:33.481Z,72.35
2022-08-21T06:29:28.474Z,72.79
2022-08-21T06:30:23.563Z,73.88
2022-08-21T06:31:18.648Z,75.21
2022-08-21T06:32:13.758Z,76.32
2022-08-21T06:33:08.763Z,75.76
2022-08-21T06:34:03.747Z,75.35
2022-08-21T06:34:58.857Z,75.62
2022-08-21T06:35:53.810Z,75.90
2022-08-21T06:36:50.958Z,76.18
2022-08-21T06:37:46.011Z,74.48
2022-08-21T06:38:41.238Z,73.43
2022-08-21T06:39:36.265Z,72.91
2022-08-21T06:40:35.061Z,73.43
2022-08-21T06:41:27.328Z,73.82
2022-08-21T06:42:21.399Z,73.56
2022-08-21T06:43:17.362Z,73.43
2022-08-21T06:44:11.657Z,73.17
2022-08-21T06:45:07.006Z,73.62
2022-08-21T06:46:02.517Z,72.85
2022-08-21T06:46:57.926Z,71.54
2022-08-21T06:47:53.282Z,70.75
2022-08-21T06:48:48.658Z,70.33
2022-08-21T06:49:44.022Z,70.51
2022-08-21T06:50:39.399Z,70.99
2022-08-21T06:51:34.772Z,71.91
2022-08-21T06:52:30.160Z,71.85
2022-08-21T06:53:25.500Z,72.60
2022-08-21T06:54:20.877Z,72.35
2022-08-21T06:55:21.854Z,72.22
2022-08-21T06:56:14.083Z,72.60
2022-08-21T06:57:08.558Z,73.23
2022-08-21T06:58:03.901Z,74.54
2022-08-21T06:58:59.380Z,75.21
2022-08-21T06:59:54.900Z,77.02
2022-08-21T07:00:50.268Z,79.29
2022-08-21T07:01:49.891Z,80.20
2022-08-21T07:02:45.163Z,80.59
2022-08-21T07:03:40.511Z,82.02
2022-08-21T07:04:35.890Z,83.83
2022-08-21T07:05:31.258Z,84.60
2022-08-21T07:06:26.334Z,84.77
2022-08-21T07:07:21.434Z,85.81
2022-08-21T07:08:16.525Z,86.98
2022-08-21T07:09:11.634Z,87.71
2022-08-21T07:10:06.714Z,87.52
2022-08-21T07:11:01.790Z,86.26
2022-08-21T07:11:57.111Z,84.08
2022-08-21T07:13:00.268Z,81.94
2022-08-21T07:13:48.206Z,79.44
2022-08-21T07:14:42.207Z,79.82
2022-08-21T07:15:37.308Z,82.34
2022-08-21T07:16:33.403Z,84.17
2022-08-21T07:17:28.818Z,84.85
2022-08-21T07:18:24.403Z,86.08
2022-08-21T07:19:19.819Z,86.26
2022-08-21T07:20:15.259Z,85.11
2022-08-21T07:21:10.908Z,85.64
2022-08-21T07:22:06.382Z,87.89
2022-08-21T07:23:01.982Z,90.07
2022-08-21T07:23:57.342Z,91.06
2022-08-21T07:24:52.795Z,91.96
2022-08-21T07:25:48.349Z,94.57
2022-08-21T07:26:43.695Z,94.87
2022-08-21T07:27:39.133Z,94.12
2022-08-21T07:28:34.789Z,94.03
2022-08-21T07:29:29.828Z,94.35
2022-08-21T07:30:24.891Z,90.56
2022-08-21T07:31:20.014Z,88.73
2022-08-21T07:32:19.522Z,88.83
2022-08-21T07:33:11.068Z,88.45
2022-08-21T07:34:05.065Z,88.26
2022-08-21T07:35:00.130Z,88.54
2022-08-21T07:35:57.562Z,89.30
2022-08-21T07:36:52.862Z,89.49
2022-08-21T07:37:48.322Z,90.56
2022-08-21T07:38:43.815Z,90.76
2022-08-21T07:39:39.490Z,91.96
2022-08-21T07:40:34.929Z,92.68
2022-08-21T07:41:30.438Z,92.16
2022-08-21T07:42:26.036Z,90.86
2022-08-21T07:43:21.556Z,92.16
2022-08-21T07:44:17.034Z,93.82
2022-08-21T07:45:12.627Z,91.56
2022-08-21T07:46:08.131Z,90.56
2022-08-21T07:47:03.599Z,89.69
2022-08-21T07:47:59.059Z,88.64
2022-08-21T07:48:54.528Z,87.52
2022-08-21T07:49:49.583Z,87.61
2022-08-21T07:50:44.661Z,87.52
2022-08-21T07:51:39.747Z,86.61
2022-08-21T07:52:34.821Z,87.43
2022-08-21T07:53:29.870Z,88.64
2022-08-21T07:54:27.909Z,90.76
2022-08-21T07:55:20.988Z,92.88
2022-08-21T07:56:15.094Z,92.16
2022-08-21T07:57:10.167Z,91.96
2022-08-21T07:58:05.245Z,92.99
2022-08-21T07:59:02.504Z,93.96
2022-08-21T07:59:57.967Z,94.71
2022-08-21T08:00:53.471Z,96.29
2022-08-21T08:01:48.835Z,96.79
2022-08-21T08:02:44.293Z,97.82
2022-08-21T08:03:39.884Z,98.51
2022-08-21T08:04:35.237Z,98.57
2022-08-21T08:05:30.722Z,99.69
2022-08-21T08:06:26.254Z,99.86
2022-08-21T08:07:21.782Z,101.26
2022-08-21T08:08:17.174Z,102.00
2022-08-21T08:09:12.590Z,101.75
2022-08-21T08:10:07.992Z,102.25
2022-08-21T08:11:03.551Z,104.75
2022-08-21T08:11:58.881Z,106.02
2022-08-21T08:12:53.991Z,105.55
2022-08-21T08:13:49.114Z,104.95
2022-08-21T08:14:44.131Z,104.23
2022-08-21T08:15:39.273Z,102.88
2022-08-21T08:16:34.266Z,102.44
2022-08-21T08:17:29.388Z,104.43
2022-08-21T08:18:24.491Z,109.43
2022-08-21T08:19:19.499Z,110.00
2022-08-21T08:20:14.759Z,109.57
2022-08-21T08:21:09.754Z,107.11
2022-08-21T08:22:04.879Z,108.36
2022-08-21T08:23:00.223Z,110.95
2022-08-21T08:23:55.024Z,110.00
2022-08-21T08:24:50.577Z,113.37
2022-08-21T08:25:45.990Z,113.29
2022-08-21T08:26:41.408Z,116.45
2022-08-21T08:27:37.063Z,117.60
2022-08-21T08:28:32.570Z,120.57
2022-08-21T08:29:28.135Z,127.00
2022-08-21T08:30:23.628Z,133.61
2022-08-21T08:31:18.593Z,140.47
2022-08-21T08:32:13.632Z,144.61
2022-08-21T08:33:08.767Z,144.48
2022-08-21T08:34:03.798Z,155.38
2022-08-21T08:34:58.805Z,157.28
2022-08-21T08:35:53.806Z,160.92
2022-08-21T08:36:48.814Z,156.25
2022-08-21T08:37:46.738Z,155.67
2022-08-21T08:38:41.930Z,169.93
2022-08-21T08:39:36.066Z,176.77
2022-08-21T08:40:31.121Z,185.94
2022-08-21T08:41:30.906Z,188.94
2022-08-21T08:42:32.250Z,190.80
2022-08-21T08:43:19.090Z,196.87
2022-08-21T08:44:13.659Z,198.78
2022-08-21T08:45:09.203Z,191.47
2022-08-21T08:46:04.606Z,184.60
2022-08-21T08:47:00.029Z,183.58
2022-08-21T08:47:55.689Z,184.19
2022-08-21T08:48:53.179Z,192.03
2022-08-21T08:49:46.318Z,193.96
2022-08-21T08:50:41.873Z,190.36
2022-08-21T08:51:37.368Z,191.03
2022-08-21T08:52:32.891Z,186.47
2022-08-21T08:53:28.494Z,191.70
2022-08-21T08:54:23.456Z,207.58
2022-08-21T08:55:18.443Z,220.71
2022-08-21T08:56:13.581Z,218.36
2022-08-21T08:57:08.571Z,220.56
2022-08-21T08:58:03.720Z,225.10
2022-08-21T08:58:58.702Z,233.76
2022-08-21T08:59:53.753Z,239.39
2022-08-21T09:00:48.847Z,224.02
2022-08-21T09:01:43.898Z,209.04
2022-08-21T09:02:38.880Z,214.79
2022-08-21T09:03:33.889Z,222.35
2022-08-21T09:04:29.141Z,234.60
2022-08-21T09:05:24.670Z,261.52
2022-08-21T09:06:19.793Z,282.70
2022-08-21T09:07:14.899Z,334.93
2022-08-21T09:08:09.906Z,404.39
2022-08-21T09:09:04.899Z,424.19
2022-08-21T09:10:00.010Z,449.65
2022-08-21T09:10:55.190Z,439.57
2022-08-21T09:11:50.261Z,380.83
2022-08-21T09:12:45.365Z,342.63
2022-08-21T09:13:40.343Z,358.34
2022-08-21T09:14:35.534Z,399.06
2022-08-21T09:15:30.536Z,454.56
2022-08-21T09:16:25.688Z,463.72
2022-08-21T09:17:20.788Z,469.93
2022-08-21T09:18:15.801Z,461.48
2022-08-21T09:19:11.323Z,437.55
2022-08-21T09:20:06.981Z,388.60
2022-08-21T09:21:02.457Z,394.11
2022-08-21T09:21:57.840Z,404.39
2022-08-21T09:22:53.401Z,441.90
2022-08-21T09:23:48.497Z,524.65
2022-08-21T09:24:43.605Z,586.48
2022-08-21T09:25:38.613Z,655.69
2022-08-21T09:26:33.613Z,691.74
2022-08-21T09:27:28.656Z,684.63
2022-08-21T09:28:23.668Z,675.62
2022-08-21T09:29:18.776Z,626.72
2022-08-21T09:30:14.315Z,610.65
2022-08-21T09:31:09.462Z,592.74
2022-08-21T09:32:04.425Z,600.75
2022-08-21T09:32:59.595Z,655.04
2022-08-21T09:33:55.873Z,676.30
2022-08-21T09:34:51.391Z,696.07
2022-08-21T09:35:46.812Z,749.25
2022-08-21T09:36:42.358Z,744.23
2022-08-21T09:37:37.842Z,903.86
2022-08-21T09:38:33.385Z,1071.43
2022-08-21T09:39:28.916Z,1160.87
2022-08-21T09:40:24.254Z,1141.03
2022-08-21T09:41:19.508Z,1140.05
2022-08-21T09:42:14.959Z,1204.87
2022-08-21T09:43:10.427Z,1139.08
2022-08-21T09:44:05.847Z,1032.48
2022-08-21T09:45:01.368Z,857.97
2022-08-21T09:45:56.812Z,761.12
2022-08-21T09:46:51.783Z,704.90
2022-08-21T09:47:46.884Z,706.39
2022-08-21T09:48:41.894Z,759.82
2022-08-21T09:49:36.951Z,882.94
2022-08-21T09:50:32.082Z,1009.83
2022-08-21T09:51:27.143Z,1126.58
2022-08-21T09:52:22.197Z,1076.61
2022-08-21T09:53:19.835Z,1036.49
2022-08-21T09:54:14.854Z,1011.36
2022-08-21T09:55:09.905Z,1022.21
2022-08-21T09:56:06.005Z,976.59
2022-08-21T09:57:01.234Z,1023.77
2022-08-21T09:57:56.693Z,1119.97
2022-08-21T09:58:52.055Z,1185.61
2022-08-21T09:59:47.494Z,984.51
2022-08-21T10:00:43.084Z,902.64
2022-08-21T10:01:38.571Z,789.01
2022-08-21T10:02:34.192Z,798.45
2022-08-21T10:03:29.674Z,933.57
2022-08-21T10:04:26.530Z,964.59
2022-08-21T10:05:22.176Z,819.52
2022-08-21T10:06:17.693Z,731.18
2022-08-21T10:07:13.126Z,701.93
2022-08-21T10:08:08.671Z,629.09
2022-08-21T10:09:04.249Z,622.05
2022-08-21T10:09:59.355Z,696.79
2022-08-21T10:10:56.486Z,789.01
2022-08-21T10:11:49.604Z,803.73
2022-08-21T10:12:44.597Z,894.17
2022-08-21T10:13:39.726Z,1129.44
2022-08-21T10:14:34.783Z,1152.85
2022-08-21T10:15:30.830Z,1031.69
2022-08-21T10:16:26.425Z,1062.90
2022-08-21T10:17:21.452Z,991.83
2022-08-21T10:18:16.569Z,920.05
2022-08-21T10:19:11.578Z,799.88
2022-08-21T10:20:06.678Z,765.04
2022-08-21T10:21:01.814Z,744.23
2022-08-21T10:21:56.823Z,712.43
2022-08-21T10:22:51.947Z,812.54
2022-08-21T10:23:46.903Z,1073.15
2022-08-21T10:24:41.939Z,1207.05
2022-08-21T10:25:36.958Z,1310.11
2022-08-21T10:26:32.430Z,1470.26
2022-08-21T10:27:27.860Z,1537.13
2022-08-21T10:28:23.308Z,1669.79
2022-08-21T10:29:18.351Z,1865.83
2022-08-21T10:30:13.455Z,1954.61
2022-08-21T10:31:08.394Z,2016.62
2022-08-21T10:32:04.915Z,2044.41
2022-08-21T10:33:00.968Z,2127.49
2022-08-21T10:33:54.947Z,2137.71
2022-08-21T10:34:50.002Z,2095.76
2022-08-21T10:35:46.251Z,2053.85
2022-08-21T10:36:41.589Z,1733.77
2022-08-21T10:37:37.140Z,1626.07
2022-08-21T10:38:50.299Z,1443.24
2022-08-21T10:39:35.690Z,1432.40
2022-08-21T10:40:25.034Z,1539.79
2022-08-21T10:41:19.447Z,1697.39
2022-08-21T10:42:14.877Z,1746.24
2022-08-21T10:43:10.352Z,1846.47
2022-08-21T10:44:05.843Z,1880.28
2022-08-21T10:45:01.283Z,1885.59
2022-08-21T10:45:56.313Z,1961.79
2022-08-21T10:46:51.376Z,2042.85
2022-08-21T10:47:46.543Z,2072.98
2022-08-21T10:48:41.632Z,2009.03
2022-08-21T10:49:36.670Z,1953.18
2022-08-21T10:50:31.745Z,1936.19
2022-08-21T10:51:29.393Z,1864.53
2022-08-21T10:52:21.785Z,1724.81
2022-08-21T10:53:16.884Z,1743.96
2022-08-21T10:54:11.935Z,1775.27
2022-08-21T10:55:08.479Z,1880.28
2022-08-21T10:56:03.506Z,1812.63
2022-08-21T10:56:58.547Z,1714.84
2022-08-21T10:57:53.563Z,1685.61
2022-08-21T10:58:49.805Z,1585.51
2022-08-21T10:59:45.254Z,1547.83
2022-08-21T11:00:40.799Z,1865.83
2022-08-21T11:01:36.112Z,2010.54
2022-08-21T11:02:31.576Z,2066.56
2022-08-21T11:03:26.923Z,1998.50
2022-08-21T11:04:21.923Z,2010.54
2022-08-21T11:05:17.101Z,1793.15
2022-08-21T11:06:12.303Z,1768.21
2022-08-21T11:07:17.193Z,1729.28
2022-08-21T11:08:03.435Z,1639.04
2022-08-21T11:08:57.458Z,1476.77
2022-08-21T11:09:52.502Z,1459.02
2022-08-21T11:10:57.880Z,1628.05
2022-08-21T11:11:50.167Z,1602.64
2022-08-21T11:12:39.531Z,1527.46
2022-08-21T11:13:33.891Z,1671.89
2022-08-21T11:14:29.332Z,1878.96
2022-08-21T11:15:29.272Z,1983.66
2022-08-21T11:16:20.418Z,2110.67
2022-08-21T11:17:14.535Z,2167.21
2022-08-21T11:18:11.209Z,2206.61
2022-08-21T11:19:06.808Z,1867.13
2022-08-21T11:20:02.156Z,1720.36
2022-08-21T11:20:57.609Z,1475.14
2022-08-21T11:21:53.184Z,1411.20
2022-08-21T11:22:52.599Z,1525.71
2022-08-21T11:23:45.119Z,1525.71
2022-08-21T11:24:39.495Z,1476.77
2022-08-21T11:25:36.938Z,1421.72
2022-08-21T11:26:30.364Z,1369.23
2022-08-21T11:27:25.844Z,1408.23
2022-08-21T11:28:21.478Z,1393.53
2022-08-21T11:29:16.898Z,1421.72
2022-08-21T11:30:12.241Z,1602.64
2022-08-21T11:31:11.496Z,1743.96
2022-08-21T11:32:06.942Z,1488.29
2022-08-21T11:33:02.400Z,1269.01
2022-08-21T11:33:57.887Z,1294.86
2022-08-21T11:34:53.322Z,1363.64
2022-08-21T11:35:48.804Z,1554.13
2022-08-21T11:36:47.249Z,1806.49
2022-08-21T11:37:39.669Z,1901.71
2022-08-21T11:38:35.147Z,1758.89
2022-08-21T11:39:30.545Z,1513.60
2022-08-21T11:40:26.117Z,1423.24
2022-08-21T11:41:21.538Z,1511.89
2022-08-21T11:42:17.077Z,1586.45
2022-08-21T11:43:12.525Z,1594.98